This is the latest recevied weather packets stored in our database for station/object YO3FVR-WX. If no packets are shown the sender has not sent any weather packets the latest 1 day(s).
| Time | Temp. | Humidity | Pressure | Rain* | Wind** | Luminosity | Snow |
|---|---|---|---|---|---|---|---|
| 1778078563 | 25.56° C | 38% | 1008.7 hPa | 0 mm | - | - | - |
| 1778074931 | 27.22° C | 36% | 1008.8 hPa | 0 mm | - | - | - |
| 1778071254 | 24.44° C | 41% | 1010 hPa | 0 mm | - | - | - |
| 1778067496 | 24.44° C | 41% | 1010 hPa | 0 mm | - | - | - |
| 1778063804 | 23.33° C | 42% | 1010.1 hPa | 0 mm | - | - | - |
| 1778062569 | 23.33° C | 44% | 1010.1 hPa | 0 mm | - | - | - |
| 1778061343 | 23.33° C | 44% | 1010.2 hPa | 0 mm | - | - | - |
| 1778060112 | 22.78° C | 45% | 1010.3 hPa | 0 mm | - | - | - |
| 1778058912 | 22.22° C | 46% | 1010.3 hPa | 0 mm | - | - | - |
| 1778057710 | 22.22° C | 46% | 1010.3 hPa | 0 mm | - | - | - |
| 1778055278 | 21.11° C | 50% | 1010.4 hPa | 0 mm | - | - | - |
| 1778054051 | 20° C | 51% | 1010.2 hPa | 0 mm | - | - | - |
| 1778051620 | 18.89° C | 54% | 1010.3 hPa | 0 mm | - | - | - |
| 1778050391 | 18.33° C | 57% | 1010.4 hPa | 0 mm | - | - | - |
| 1778047962 | 15° C | 64% | 1010.4 hPa | 0 mm | - | - | - |
| 1778045560 | 14.44° C | 65% | 1010.4 hPa | 0 mm | - | - | - |
| 1778044331 | 14.44° C | 64% | 1010.2 hPa | 0 mm | - | - | - |
| 1778043130 | 14.44° C | 64% | 1010.2 hPa | 0 mm | - | - | - |
| 1778040670 | 12.78° C | 67% | 1009.9 hPa | 0 mm | - | - | - |
| 1778038240 | 12.22° C | 68% | 1009.6 hPa | 0 mm | - | - | - |
| 1778037010 | 12.22° C | 67% | 1009.6 hPa | 0 mm | - | - | - |
| 1778035780 | 12.78° C | 65% | 1009.4 hPa | 0 mm | - | - | - |
| 1778033319 | 13.33° C | 64% | 1009.2 hPa | 0 mm | - | - | - |
| 1778032119 | 13.33° C | 62% | 1009.3 hPa | 0 mm | - | - | - |
| 1778030889 | 13.89° C | 61% | 1009.3 hPa | 0 mm | - | - | - |
* Rain latest hour (hover to see other rain measurements)
** Current wind speed in m/s (hover to see current wind gust speed)